Time;durP1;ratioP1;P1;durP2;ratioP2;P2;SDS_P1;SDS_P2;PMS_P1;PMS_P2;Temp;Humidity;BMP_temperature;BMP_pressure;BME280_temperature;BME280_humidity;BME280_pressure;Samples;Min_cycle;Max_cycle;Signal;HPM_P1;HPM_P2
2024/04/18 00:02:22;;;;;;;0.47;0.27;;;6.00;99.90;;;;;;5486340;26;20518;-54
2024/04/18 00:04:48;;;;;;;0.83;0.43;;;6.00;99.90;;;;;;5472396;26;20530;-49
2024/04/18 00:07:17;;;;;;;0.73;0.30;;;5.90;99.90;;;;;;5495076;26;20859;-55
2024/04/18 00:09:43;;;;;;;1.93;0.57;;;5.90;99.90;;;;;;5483208;26;20741;-54
2024/04/18 00:12:12;;;;;;;0.70;0.33;;;6.00;1.00;;;;;;5457783;26;20501;-53
2024/04/18 00:14:41;;;;;;;0.70;0.40;;;6.10;99.90;;;;;;5459190;26;20572;-53
2024/04/18 00:17:09;;;;;;;0.60;0.40;;;6.20;99.90;;;;;;5495774;26;20504;-53
2024/04/18 00:19:35;;;;;;;0.77;0.40;;;6.30;99.90;;;;;;5495286;26;20765;-49
2024/04/18 00:22:05;;;;;;;1.00;0.43;;;6.30;99.90;;;;;;5495539;26;20457;-51
2024/04/18 00:24:31;;;;;;;2.70;0.60;;;6.30;99.90;;;;;;5495104;26;20453;-49
2024/04/18 00:26:59;;;;;;;0.70;0.50;;;6.20;99.90;;;;;;5492762;26;20502;-53
2024/04/18 00:29:25;;;;;;;1.87;0.40;;;6.20;99.90;;;;;;5458929;26;20512;-52
2024/04/18 00:31:56;;;;;;;2.30;0.50;;;6.10;99.90;;;;;;5458640;26;20463;-51
2024/04/18 00:34:22;;;;;;;0.90;0.40;;;5.90;99.90;;;;;;5458120;26;20459;-53
2024/04/18 00:36:51;;;;;;;0.70;0.40;;;5.80;1.00;;;;;;5458624;26;20728;-52
2024/04/18 00:39:17;;;;;;;0.70;0.30;;;5.70;99.90;;;;;;5458544;26;20451;-52
2024/04/18 00:41:46;;;;;;;1.07;0.40;;;5.70;6.10;;;;;;5479274;26;20458;-51
2024/04/18 00:44:12;;;;;;;0.70;0.43;;;5.70;13.60;;;;;;5508946;26;20461;-52
2024/04/18 00:46:41;;;;;;;0.70;0.40;;;5.80;10.70;;;;;;5493428;26;20461;-52
2024/04/18 00:49:10;;;;;;;0.93;0.40;;;5.90;4.40;;;;;;5529496;26;20509;-53
2024/04/18 00:51:38;;;;;;;0.50;0.30;;;5.90;99.90;;;;;;5531614;26;20609;-49
2024/04/18 00:54:05;;;;;;;0.80;0.47;;;5.80;99.90;;;;;;5531504;26;20440;-55
2024/04/18 00:56:33;;;;;;;1.27;0.50;;;5.80;99.90;;;;;;5531795;26;20456;-52
2024/04/18 00:59:00;;;;;;;0.70;0.40;;;5.70;13.30;;;;;;5530419;26;20463;-53
2024/04/18 01:01:29;;;;;;;2.00;0.40;;;5.70;17.90;;;;;;5457632;26;20590;-55
2024/04/18 01:03:57;;;;;;;0.57;0.40;;;5.70;17.00;;;;;;5490379;26;20470;-49
2024/04/18 01:06:29;;;;;;;0.97;0.50;;;5.70;18.30;;;;;;5494110;26;20530;-51
2024/04/18 01:08:56;;;;;;;0.40;0.20;;;5.60;21.60;;;;;;5494658;26;20449;-48
2024/04/18 01:11:24;;;;;;;0.40;0.20;;;5.60;19.10;;;;;;5498930;26;20464;-50
2024/04/18 01:13:50;;;;;;;0.47;0.23;;;5.50;23.50;;;;;;5531871;26;20926;-52
2024/04/18 01:16:19;;;;;;;0.50;0.30;;;5.60;29.70;;;;;;5531392;26;20436;-51
2024/04/18 01:18:45;;;;;;;0.50;0.20;;;5.60;22.90;;;;;;5529715;26;20493;-52
2024/04/18 01:21:14;;;;;;;0.30;0.17;;;5.60;99.90;;;;;;5531555;26;20444;-53
2024/04/18 01:23:42;;;;;;;0.90;0.20;;;5.60;99.90;;;;;;5531434;26;20452;-49
2024/04/18 01:26:16;;;;;;;0.30;0.10;;;5.60;99.90;;;;;;5531747;26;20460;-51
2024/04/18 01:28:43;;;;;;;0.47;0.30;;;5.60;17.40;;;;;;5531138;25;20447;-50
2024/04/18 01:31:11;;;;;;;0.40;0.20;;;5.60;99.90;;;;;;5531653;26;20460;-54
2024/04/18 01:33:37;;;;;;;0.40;0.20;;;5.50;99.90;;;;;;5494549;26;20473;-54
2024/04/18 01:36:06;;;;;;;0.50;0.20;;;5.50;99.90;;;;;;5502337;26;20933;-53
2024/04/18 01:38:32;;;;;;;0.40;0.20;;;5.50;99.90;;;;;;5500976;26;20461;-55
2024/04/18 01:41:01;;;;;;;0.40;0.20;;;5.40;99.90;;;;;;5494172;26;20731;-54
2024/04/18 01:43:30;;;;;;;0.40;0.23;;;5.40;99.90;;;;;;5501005;25;20756;-51
2024/04/18 01:45:58;;;;;;;0.33;0.20;;;5.40;99.90;;;;;;5468622;26;20786;-52
2024/04/18 01:48:24;;;;;;;0.40;0.20;;;5.50;99.90;;;;;;5457211;26;20498;-55
2024/04/18 01:50:53;;;;;;;1.00;0.30;;;5.60;99.90;;;;;;5517226;25;20516;-52
2024/04/18 01:53:19;;;;;;;0.30;0.10;;;5.60;99.90;;;;;;5488287;26;20532;-52
2024/04/18 01:55:48;;;;;;;0.30;0.20;;;5.50;99.90;;;;;;5459356;26;20759;-52
2024/04/18 01:58:14;;;;;;;0.50;0.20;;;5.50;99.90;;;;;;5495649;26;20470;-50
2024/04/18 02:00:48;;;;;;;0.40;0.20;;;5.50;99.90;;;;;;5508846;26;20469;-51
2024/04/18 02:03:14;;;;;;;1.83;0.20;;;5.60;99.90;;;;;;5500706;25;20453;-53
2024/04/18 02:05:44;;;;;;;0.30;0.17;;;5.60;99.90;;;;;;5513558;26;20541;-51
2024/04/18 02:08:10;;;;;;;0.47;0.27;;;5.50;99.90;;;;;;5523501;25;20469;-53
2024/04/18 02:10:39;;;;;;;0.50;0.10;;;5.50;1.00;;;;;;5519146;25;20763;-52
2024/04/18 02:13:05;;;;;;;1.37;0.20;;;5.50;99.90;;;;;;5527490;25;20531;-54
2024/04/18 02:15:34;;;;;;;0.40;0.20;;;5.50;99.90;;;;;;5509381;26;20448;-53
2024/04/18 02:18:03;;;;;;;1.47;0.10;;;5.50;99.90;;;;;;5530385;26;20441;-53
2024/04/18 02:20:31;;;;;;;0.60;0.30;;;5.70;99.90;;;;;;5529359;26;20515;-53
2024/04/18 02:22:57;;;;;;;0.50;0.20;;;5.70;99.90;;;;;;5529943;26;20464;-52
2024/04/18 02:25:26;;;;;;;0.50;0.30;;;5.80;99.90;;;;;;5467417;26;20468;-52
2024/04/18 02:27:52;;;;;;;0.30;0.20;;;5.70;99.90;;;;;;5516802;26;20519;-54
2024/04/18 02:30:21;;;;;;;0.30;0.10;;;5.70;99.90;;;;;;5492589;26;20947;-50
2024/04/18 02:32:47;;;;;;;0.60;0.20;;;5.70;99.90;;;;;;5496469;26;20756;-50
2024/04/18 02:35:20;;;;;;;0.30;0.10;;;5.60;99.90;;;;;;5529997;26;20513;-52
2024/04/18 02:37:47;;;;;;;0.37;0.20;;;5.50;16.00;;;;;;5527240;26;20566;-52
2024/04/18 02:40:16;;;;;;;0.30;0.20;;;5.50;31.80;;;;;;5529351;26;20544;-53
2024/04/18 02:42:42;;;;;;;0.57;0.20;;;5.60;43.70;;;;;;5529177;26;20961;-49
2024/04/18 02:45:10;;;;;;;1.03;0.23;;;5.60;42.60;;;;;;5507037;26;20465;-51
2024/04/18 02:47:36;;;;;;;0.40;0.20;;;5.70;49.60;;;;;;5529079;26;20856;-52
2024/04/18 02:50:06;;;;;;;1.33;0.20;;;5.70;41.80;;;;;;5513735;26;20490;-52
2024/04/18 02:52:35;;;;;;;0.40;0.10;;;5.70;99.90;;;;;;5492337;26;20609;-51
2024/04/18 02:55:03;;;;;;;0.53;0.20;;;5.60;99.90;;;;;;5492960;26;20469;-49
2024/04/18 02:57:29;;;;;;;0.40;0.20;;;5.60;46.80;;;;;;5501277;26;20562;-52
2024/04/18 02:59:59;;;;;;;0.47;0.20;;;5.70;48.80;;;;;;5525264;26;20500;-48
2024/04/18 03:02:26;;;;;;;1.30;0.30;;;5.70;45.50;;;;;;5493934;26;20937;-50
2024/04/18 03:04:54;;;;;;;0.40;0.20;;;5.70;40.90;;;;;;5502648;26;20819;-53
2024/04/18 03:07:20;;;;;;;0.30;0.20;;;5.60;40.50;;;;;;5524128;26;20515;-50
2024/04/18 03:09:52;;;;;;;2.00;0.40;;;5.60;56.10;;;;;;5492406;26;20765;-50
2024/04/18 03:12:18;;;;;;;0.70;0.30;;;5.70;56.50;;;;;;5492554;26;20879;-52
2024/04/18 03:14:47;;;;;;;0.80;0.30;;;5.80;50.40;;;;;;5525763;26;20454;-51
2024/04/18 03:17:13;;;;;;;0.40;0.20;;;5.70;30.40;;;;;;5508724;26;20457;-51
2024/04/18 03:19:42;;;;;;;1.47;0.20;;;5.70;34.40;;;;;;5529637;26;20501;-50
2024/04/18 03:22:08;;;;;;;0.40;0.30;;;5.70;27.30;;;;;;5520977;26;20516;-49
2024/04/18 03:24:36;;;;;;;0.67;0.27;;;5.70;34.10;;;;;;5494563;26;20450;-51
2024/04/18 03:27:05;;;;;;;0.43;0.27;;;5.70;99.90;;;;;;5520032;26;20448;-49
2024/04/18 03:29:33;;;;;;;0.97;0.30;;;5.70;30.70;;;;;;5497396;26;20920;-48
2024/04/18 03:32:02;;;;;;;0.77;0.27;;;5.80;38.60;;;;;;5516051;26;20478;-48
2024/04/18 03:34:30;;;;;;;0.40;0.20;;;5.80;35.60;;;;;;5506173;26;20565;-50
2024/04/18 03:36:59;;;;;;;0.40;0.20;;;5.70;99.90;;;;;;5503735;26;20462;-52
2024/04/18 03:39:30;;;;;;;1.03;0.30;;;5.60;36.00;;;;;;5490757;26;20449;-53
2024/04/18 03:41:59;;;;;;;0.60;0.30;;;5.60;55.60;;;;;;5490155;26;20461;-49
2024/04/18 03:44:28;;;;;;;0.80;0.40;;;5.50;63.70;;;;;;5521911;26;20516;-49
2024/04/18 03:46:56;;;;;;;0.60;0.40;;;5.60;82.80;;;;;;5504680;26;20484;-49
2024/04/18 03:49:25;;;;;;;0.57;0.27;;;5.70;99.90;;;;;;5526816;26;20452;-53
2024/04/18 03:51:51;;;;;;;1.03;0.40;;;5.70;99.90;;;;;;5512636;26;20461;-49
2024/04/18 03:54:20;;;;;;;1.77;0.50;;;5.60;99.90;;;;;;5489970;26;20502;-49
2024/04/18 03:56:46;;;;;;;0.80;0.40;;;5.50;99.90;;;;;;5490735;26;20943;-53
2024/04/18 03:59:14;;;;;;;1.23;0.40;;;5.50;60.50;;;;;;5519836;26;20464;-52
2024/04/18 04:01:43;;;;;;;0.70;0.43;;;5.40;99.90;;;;;;5496036;26;20587;-52
2024/04/18 04:04:11;;;;;;;0.70;0.30;;;5.40;99.90;;;;;;5494705;26;20473;-49
2024/04/18 04:06:37;;;;;;;0.70;0.40;;;5.30;99.90;;;;;;5523934;26;20519;-51
2024/04/18 04:09:06;;;;;;;1.20;0.40;;;5.30;99.90;;;;;;5526005;26;20524;-49
2024/04/18 04:11:35;;;;;;;0.57;0.37;;;5.40;99.90;;;;;;5491626;26;20517;-52
2024/04/18 04:14:01;;;;;;;0.60;0.30;;;5.30;99.90;;;;;;5494571;26;20521;-52
2024/04/18 04:16:30;;;;;;;1.17;0.50;;;5.30;99.90;;;;;;5523695;26;20480;-51
2024/04/18 04:18:59;;;;;;;1.17;0.40;;;5.30;99.90;;;;;;5507436;26;20543;-49
2024/04/18 04:21:28;;;;;;;0.80;0.40;;;5.30;99.90;;;;;;5528594;26;20425;-51
2024/04/18 04:23:54;;;;;;;2.40;0.47;;;5.20;99.90;;;;;;5527387;26;21221;-52
2024/04/18 04:26:22;;;;;;;0.70;0.50;;;5.10;99.90;;;;;;5524239;26;20460;-48
2024/04/18 04:28:48;;;;;;;0.77;0.50;;;5.10;99.90;;;;;;5525354;26;20505;-53
2024/04/18 04:31:17;;;;;;;7.13;0.70;;;5.10;99.90;;;;;;5495209;26;20911;-50
2024/04/18 04:33:43;;;;;;;1.80;0.40;;;5.10;99.90;;;;;;5491899;26;20505;-51
2024/04/18 04:36:14;;;;;;;0.90;0.50;;;5.10;99.90;;;;;;5504088;26;20452;-50
2024/04/18 04:38:41;;;;;;;0.90;0.40;;;5.10;99.90;;;;;;5523564;26;20436;-49
2024/04/18 04:41:09;;;;;;;0.63;0.40;;;5.10;99.90;;;;;;5488919;26;20462;-50
2024/04/18 04:43:35;;;;;;;0.83;0.40;;;5.10;99.90;;;;;;5490842;26;20469;-48
2024/04/18 04:46:04;;;;;;;0.90;0.40;;;5.10;99.90;;;;;;5502082;26;20571;-51
2024/04/18 04:48:30;;;;;;;0.80;0.50;;;5.10;99.90;;;;;;5489784;26;20526;-49
2024/04/18 04:51:01;;;;;;;0.73;0.50;;;5.10;99.90;;;;;;5487184;26;20745;-49
2024/04/18 04:53:30;;;;;;;2.30;0.50;;;5.10;99.90;;;;;;5491977;26;20478;-54
2024/04/18 04:55:58;;;;;;;1.83;0.53;;;5.10;99.90;;;;;;5455996;26;20455;-52
2024/04/18 04:58:25;;;;;;;2.20;0.40;;;5.20;99.90;;;;;;5474313;26;20473;-47
2024/04/18 05:00:55;;;;;;;1.50;0.50;;;5.30;99.90;;;;;;5489637;26;20526;-52
2024/04/18 05:03:21;;;;;;;1.30;0.40;;;5.30;99.90;;;;;;5491796;26;20477;-53
2024/04/18 05:05:50;;;;;;;1.00;0.57;;;5.30;99.90;;;;;;5518620;26;20487;-51
2024/04/18 05:08:17;;;;;;;0.70;0.50;;;5.40;99.90;;;;;;5513321;26;20483;-52
2024/04/18 05:10:48;;;;;;;0.80;0.60;;;5.40;99.90;;;;;;5488385;26;20845;-51
2024/04/18 05:13:15;;;;;;;1.67;0.67;;;5.50;99.90;;;;;;5516597;25;20473;-47
2024/04/18 05:15:44;;;;;;;0.90;0.50;;;5.60;99.90;;;;;;5488180;26;20973;-52
2024/04/18 05:18:10;;;;;;;0.90;0.60;;;5.50;99.90;;;;;;5506703;26;20448;-46
2024/04/18 05:20:39;;;;;;;0.60;0.30;;;5.50;99.90;;;;;;5498967;26;20511;-49
2024/04/18 05:23:06;;;;;;;0.77;0.43;;;5.50;99.90;;;;;;5510624;26;20528;-52
2024/04/18 05:25:36;;;;;;;3.30;0.70;;;5.40;99.90;;;;;;5490426;26;20539;-49
2024/04/18 05:28:10;;;;;;;1.27;0.50;;;5.40;99.90;;;;;;5501423;26;20908;-52
2024/04/18 05:33:25;;;;;;;1.57;0.60;;;5.60;99.90;;;;;;5493637;26;21072;-55
2024/04/18 05:35:54;;;;;;;0.97;0.60;;;5.60;99.90;;;;;;5489576;26;20450;-49
2024/04/18 05:38:23;;;;;;;1.50;0.50;;;5.60;99.90;;;;;;5517820;26;20465;-52
2024/04/18 05:40:52;;;;;;;1.40;0.77;;;5.70;99.90;;;;;;5525385;26;20465;-53
2024/04/18 05:43:24;;;;;;;1.57;0.50;;;5.90;99.90;;;;;;5526626;26;20453;-52
2024/04/18 05:45:53;;;;;;;1.97;0.60;;;6.00;99.90;;;;;;5503001;26;20532;-53
2024/04/18 05:48:22;;;;;;;0.80;0.40;;;6.10;99.90;;;;;;5523897;26;20692;-55
2024/04/18 05:50:51;;;;;;;0.97;0.50;;;6.00;99.90;;;;;;5490764;26;20450;-52
2024/04/18 05:53:20;;;;;;;1.23;0.60;;;5.80;99.90;;;;;;5487568;26;20513;-52
2024/04/18 05:55:49;;;;;;;3.90;0.80;;;5.70;99.90;;;;;;5487234;26;20458;-53
2024/04/18 05:58:18;;;;;;;0.90;0.47;;;5.70;99.90;;;;;;5500740;26;20525;-53
2024/04/18 06:00:49;;;;;;;3.27;0.80;;;5.90;99.90;;;;;;5515195;26;20947;-53
2024/04/18 06:03:18;;;;;;;1.40;0.70;;;6.00;99.90;;;;;;5486440;26;20510;-53
2024/04/18 06:05:47;;;;;;;0.80;0.60;;;6.00;99.90;;;;;;5484233;26;20520;-51
2024/04/18 06:08:13;;;;;;;1.13;0.60;;;6.10;99.90;;;;;;5480382;26;20520;-53
2024/04/18 06:10:44;;;;;;;1.43;0.60;;;6.20;99.90;;;;;;5504868;26;20476;-52
2024/04/18 06:13:12;;;;;;;1.43;0.70;;;6.20;99.90;;;;;;5508926;26;20470;-49
2024/04/18 06:15:43;;;;;;;4.13;1.20;;;6.20;99.90;;;;;;5485281;26;20605;-54
2024/04/18 06:18:15;;;;;;;1.10;0.50;;;6.30;99.90;;;;;;5481929;26;21183;-52
2024/04/18 06:20:44;;;;;;;1.20;0.90;;;6.40;44.90;;;;;;5451617;26;20439;-51
2024/04/18 06:23:13;;;;;;;2.07;0.70;;;6.40;99.90;;;;;;5451498;26;20518;-52
2024/04/18 06:25:43;;;;;;;1.23;0.67;;;6.30;99.90;;;;;;5455237;26;20467;-50
2024/04/18 06:28:13;;;;;;;1.07;0.40;;;6.40;99.90;;;;;;5450260;26;20578;-53
2024/04/18 06:30:42;;;;;;;0.90;0.50;;;6.70;99.90;;;;;;5452328;26;20455;-54
2024/04/18 06:33:10;;;;;;;1.20;0.70;;;6.80;15.70;;;;;;5476817;26;20454;-52
2024/04/18 06:35:44;;;;;;;0.93;0.60;;;7.00;99.90;;;;;;5487373;26;20465;-55
2024/04/18 06:38:12;;;;;;;1.90;0.57;;;7.40;99.90;;;;;;5487814;26;20461;-55
2024/04/18 06:40:41;;;;;;;1.40;0.77;;;7.70;99.90;;;;;;5483377;26;21041;-54
2024/04/18 06:43:10;;;;;;;0.83;0.60;;;7.80;99.90;;;;;;5486856;26;20454;-52
2024/04/18 06:45:38;;;;;;;1.57;0.73;;;7.70;99.90;;;;;;5488932;26;20512;-50
2024/04/18 06:48:09;;;;;;;4.53;1.10;;;7.80;99.90;;;;;;5487757;26;20503;-50
2024/04/18 06:50:38;;;;;;;3.73;0.60;;;7.80;99.90;;;;;;5457536;26;20901;-49
2024/04/18 06:53:09;;;;;;;3.07;0.40;;;7.70;99.90;;;;;;5478987;26;20474;-54
2024/04/18 06:55:39;;;;;;;1.80;0.70;;;7.50;99.90;;;;;;5484045;26;20508;-54
2024/04/18 06:58:07;;;;;;;2.00;0.77;;;7.80;99.90;;;;;;5484686;26;20483;-55
2024/04/18 07:00:37;;;;;;;1.87;0.90;;;8.10;99.90;;;;;;5473656;26;20937;-52
2024/04/18 07:03:07;;;;;;;0.83;0.57;;;8.00;99.90;;;;;;5471955;26;20446;-51
2024/04/18 07:05:36;;;;;;;3.50;0.80;;;8.00;99.90;;;;;;5479652;26;20520;-55
2024/04/18 07:08:05;;;;;;;1.07;0.50;;;7.90;99.90;;;;;;5466285;26;20463;-55
2024/04/18 07:10:37;;;;;;;1.10;0.60;;;8.00;99.90;;;;;;5448654;26;20561;-57
2024/04/18 07:13:06;;;;;;;0.77;0.50;;;8.10;99.90;;;;;;5449424;26;20463;-53
2024/04/18 07:15:34;;;;;;;1.20;0.70;;;7.60;99.90;;;;;;5485335;26;20757;-52
2024/04/18 07:18:03;;;;;;;3.70;0.50;;;7.30;99.90;;;;;;5485830;26;20454;-52
2024/04/18 07:20:33;;;;;;;0.83;0.50;;;7.50;1.00;;;;;;5485494;26;20830;-50
2024/04/18 07:23:02;;;;;;;1.17;0.53;;;7.60;99.90;;;;;;5485280;26;20508;-52
2024/04/18 07:25:31;;;;;;;0.80;0.50;;;7.30;99.90;;;;;;5489176;26;20462;-47
2024/04/18 07:28:02;;;;;;;0.77;0.37;;;7.30;99.90;;;;;;5486067;26;20462;-51
2024/04/18 07:30:31;;;;;;;0.57;0.30;;;7.60;99.90;;;;;;5480955;26;20461;-54
2024/04/18 07:32:59;;;;;;;0.90;0.40;;;7.70;99.90;;;;;;5478779;26;20747;-51
2024/04/18 07:35:28;;;;;;;0.70;0.37;;;7.90;99.90;;;;;;5485999;26;20922;-55
2024/04/18 07:37:57;;;;;;;0.60;0.40;;;7.90;99.90;;;;;;5503532;26;20543;-52
2024/04/18 07:40:25;;;;;;;0.60;0.20;;;7.70;99.90;;;;;;5526285;26;20517;-53
2024/04/18 07:42:54;;;;;;;0.60;0.50;;;7.90;99.90;;;;;;5522477;26;20456;-55
2024/04/18 07:45:25;;;;;;;0.73;0.30;;;8.10;99.90;;;;;;5509754;26;20509;-54
2024/04/18 07:47:54;;;;;;;0.50;0.30;;;7.80;1.00;;;;;;5505253;26;20441;-52
2024/04/18 07:50:23;;;;;;;0.67;0.40;;;7.60;99.90;;;;;;5504357;26;20516;-49
2024/04/18 07:52:51;;;;;;;0.80;0.37;;;7.50;1.00;;;;;;5489210;26;20469;-53
2024/04/18 07:55:20;;;;;;;0.67;0.40;;;8.10;99.90;;;;;;5488796;26;20521;-50
2024/04/18 07:57:49;;;;;;;1.00;0.47;;;8.00;99.90;;;;;;5488020;26;20556;-50
2024/04/18 08:00:18;;;;;;;0.80;0.40;;;7.70;99.90;;;;;;5525235;26;20452;-50
2024/04/18 08:02:50;;;;;;;1.23;0.40;;;7.70;99.90;;;;;;5507279;26;20724;-53
2024/04/18 08:05:18;;;;;;;0.87;0.40;;;7.90;99.90;;;;;;5491604;26;20480;-53
2024/04/18 08:07:47;;;;;;;0.50;0.40;;;8.00;99.90;;;;;;5488465;26;20528;-51
2024/04/18 08:10:16;;;;;;;0.80;0.40;;;8.30;99.90;;;;;;5487112;26;20567;-56
2024/04/18 08:12:47;;;;;;;0.80;0.40;;;8.50;99.90;;;;;;5514095;26;20515;-50
2024/04/18 08:15:16;;;;;;;0.50;0.30;;;8.80;99.90;;;;;;5483168;26;20508;-54
2024/04/18 08:17:44;;;;;;;1.37;0.40;;;9.00;99.90;;;;;;5488296;26;20495;-53
2024/04/18 08:20:15;;;;;;;0.60;0.40;;;8.60;99.90;;;;;;5519794;26;20465;-53
2024/04/18 08:22:44;;;;;;;0.40;0.30;;;8.80;99.90;;;;;;5455906;26;20467;-51
2024/04/18 08:25:13;;;;;;;1.67;0.43;;;8.60;99.90;;;;;;5495736;26;20505;-55
2024/04/18 08:27:41;;;;;;;0.80;0.50;;;8.70;99.90;;;;;;5489220;26;20462;-50
2024/04/18 08:30:11;;;;;;;0.60;0.40;;;8.60;99.90;;;;;;5521482;26;20453;-54
2024/04/18 08:32:40;;;;;;;1.07;0.50;;;8.60;99.90;;;;;;5490176;26;20450;-55
2024/04/18 08:35:08;;;;;;;0.60;0.40;;;8.70;99.90;;;;;;5472541;26;20982;-53
2024/04/18 08:37:40;;;;;;;0.70;0.40;;;8.80;99.90;;;;;;5452657;26;20587;-56
2024/04/18 08:40:10;;;;;;;0.80;0.50;;;8.50;99.90;;;;;;5450271;26;20881;-53
2024/04/18 08:42:39;;;;;;;2.60;0.50;;;8.60;99.90;;;;;;5514956;26;20349;-54
2024/04/18 08:45:10;;;;;;;0.80;0.50;;;8.60;99.90;;;;;;5522352;26;20411;-52
2024/04/18 08:47:40;;;;;;;0.77;0.40;;;8.70;99.90;;;;;;5485159;26;20606;-50
2024/04/18 08:50:12;;;;;;;0.60;0.40;;;8.60;99.90;;;;;;5454653;26;20567;-51
2024/04/18 08:52:44;;;;;;;0.77;0.50;;;8.60;99.90;;;;;;5483447;26;20716;-50
2024/04/18 08:55:13;;;;;;;0.50;0.30;;;8.70;99.90;;;;;;5481179;26;20494;-54
2024/04/18 08:57:49;;;;;;;0.80;0.40;;;8.70;99.90;;;;;;5476977;26;20466;-52
2024/04/18 09:00:18;;;;;;;0.80;0.30;;;8.90;99.90;;;;;;5484734;26;20461;-53
2024/04/18 09:02:47;;;;;;;0.80;0.40;;;8.70;99.90;;;;;;5487205;26;20536;-52
2024/04/18 09:05:15;;;;;;;0.87;0.40;;;8.30;1.00;;;;;;5491465;26;20557;-53
2024/04/18 09:07:47;;;;;;;0.83;0.50;;;8.40;1.00;;;;;;5525533;26;20464;-53
2024/04/18 09:10:21;;;;;;;0.80;0.47;;;8.30;99.90;;;;;;5525545;26;20519;-52
2024/04/18 09:12:52;;;;;;;0.50;0.30;;;8.60;99.90;;;;;;5488293;26;20811;-55
2024/04/18 09:15:21;;;;;;;1.67;0.37;;;9.00;99.90;;;;;;5510078;26;20451;-53
2024/04/18 09:18:02;;;;;;;0.50;0.30;;;9.30;99.90;;;;;;5452255;26;20439;-52
2024/04/18 09:20:31;;;;;;;0.60;0.40;;;9.50;99.90;;;;;;5466747;26;20473;-51
2024/04/18 09:23:03;;;;;;;1.00;0.50;;;9.40;99.90;;;;;;5486775;26;20934;-53
2024/04/18 09:25:33;;;;;;;0.70;0.50;;;9.60;99.90;;;;;;5487598;26;20466;-52
2024/04/18 09:28:02;;;;;;;0.67;0.30;;;9.80;99.90;;;;;;5483821;26;20461;-52
2024/04/18 09:30:31;;;;;;;0.80;0.40;;;9.90;99.90;;;;;;5485648;26;20497;-53
2024/04/18 09:33:02;;;;;;;1.00;0.50;;;10.10;99.90;;;;;;5487843;26;20492;-52
2024/04/18 09:35:33;;;;;;;0.90;0.50;;;9.80;99.90;;;;;;5481799;26;20446;-50
2024/04/18 09:38:06;;;;;;;0.80;0.50;;;9.30;99.90;;;;;;5483282;26;20840;-50
2024/04/18 09:40:38;;;;;;;1.47;0.60;;;9.60;99.90;;;;;;5487105;26;20462;-51
2024/04/18 09:43:17;;;;;;;1.13;0.50;;;9.30;99.90;;;;;;5490230;26;20469;-51
2024/04/18 09:45:51;;;;;;;0.63;0.40;;;9.10;99.90;;;;;;5485425;26;20993;-50
2024/04/18 09:48:24;;;;;;;1.10;0.50;;;9.20;99.90;;;;;;5488350;26;20450;-50
2024/04/18 09:50:54;;;;;;;1.10;0.60;;;9.80;99.90;;;;;;5467974;26;20505;-50
2024/04/18 09:53:27;;;;;;;1.97;0.40;;;10.10;99.90;;;;;;5489409;26;20446;-50
2024/04/18 09:55:56;;;;;;;2.30;0.70;;;10.00;99.90;;;;;;5483457;26;20501;-50
2024/04/18 09:58:26;;;;;;;0.60;0.30;;;10.00;99.90;;;;;;5495975;26;20472;-51
2024/04/18 10:00:56;;;;;;;1.00;0.40;;;10.20;99.90;;;;;;5494404;26;20466;-52
2024/04/18 10:03:25;;;;;;;0.80;0.50;;;10.40;99.90;;;;;;5483685;26;20501;-52
2024/04/18 10:05:57;;;;;;;0.90;0.40;;;10.50;99.90;;;;;;5483822;26;20632;-51
2024/04/18 10:08:33;;;;;;;0.90;0.60;;;10.60;99.90;;;;;;5471104;26;20589;-52
2024/04/18 10:11:02;;;;;;;1.13;0.50;;;10.60;99.90;;;;;;5452361;26;20509;-51
2024/04/18 10:13:31;;;;;;;1.17;0.60;;;11.00;99.90;;;;;;5481143;26;20575;-52
2024/04/18 10:16:11;;;;;;;1.43;0.50;;;11.10;99.90;;;;;;5486591;26;20461;-53
2024/04/18 10:18:40;;;;;;;0.73;0.40;;;10.70;99.90;;;;;;5489805;26;21226;-52
2024/04/18 10:21:10;;;;;;;0.90;0.40;;;10.40;99.90;;;;;;5486930;26;21140;-52
2024/04/18 10:23:49;;;;;;;1.50;0.40;;;10.10;99.90;;;;;;5522948;26;20468;-49
2024/04/18 10:26:18;;;;;;;0.50;0.30;;;9.90;99.90;;;;;;5524418;26;20504;-55
2024/04/18 10:28:49;;;;;;;0.30;0.20;;;9.70;99.90;;;;;;5485752;26;20588;-54
2024/04/18 10:31:18;;;;;;;0.37;0.17;;;9.30;1.00;;;;;;5489345;26;20601;-52
2024/04/18 10:33:49;;;;;;;0.50;0.20;;;9.00;1.00;;;;;;5483238;26;20948;-52
2024/04/18 10:36:18;;;;;;;0.40;0.20;;;8.50;1.00;;;;;;5486106;26;20442;-52
2024/04/18 10:38:50;;;;;;;0.30;0.10;;;8.20;1.00;;;;;;5488295;26;20449;-50
2024/04/18 10:41:20;;;;;;;0.50;0.20;;;8.10;1.00;;;;;;5509137;26;20464;-53
2024/04/18 10:43:49;;;;;;;0.40;0.20;;;8.30;1.00;;;;;;5519103;26;21183;-53
2024/04/18 10:46:19;;;;;;;0.40;0.20;;;8.60;1.00;;;;;;5511269;26;20469;-51
2024/04/18 10:48:53;;;;;;;0.43;0.20;;;8.20;1.00;;;;;;5482707;26;20545;-49
2024/04/18 10:51:22;;;;;;;0.40;0.20;;;8.50;1.00;;;;;;5482076;26;21163;-51
2024/04/18 10:53:54;;;;;;;0.40;0.20;;;8.80;1.00;;;;;;5483381;26;20484;-48
2024/04/18 10:56:23;;;;;;;0.67;0.40;;;9.00;1.00;;;;;;5484497;26;20903;-53
2024/04/18 10:58:52;;;;;;;0.40;0.30;;;8.70;99.90;;;;;;5493489;26;20526;-52
2024/04/18 11:01:22;;;;;;;0.53;0.33;;;8.40;1.00;;;;;;5513515;26;20468;-49
2024/04/18 11:03:54;;;;;;;0.60;0.30;;;7.90;1.00;;;;;;5500020;26;20540;-49
2024/04/18 11:06:22;;;;;;;0.60;0.50;;;8.10;1.00;;;;;;5519129;26;20492;-51
2024/04/18 11:08:57;;;;;;;1.00;0.60;;;8.50;1.00;;;;;;5476237;26;20466;-51
2024/04/18 11:11:27;;;;;;;4.73;0.40;;;8.20;1.00;;;;;;5464065;26;20954;-50
2024/04/18 11:13:57;;;;;;;1.00;0.50;;;8.20;1.00;;;;;;5458035;26;20473;-52
2024/04/18 11:16:27;;;;;;;1.60;0.30;;;8.30;1.00;;;;;;5447599;26;20467;-51
2024/04/18 11:18:56;;;;;;;0.50;0.40;;;8.10;1.00;;;;;;5482562;26;20478;-52
2024/04/18 11:21:24;;;;;;;1.90;0.77;;;8.70;1.00;;;;;;5482922;26;20509;-55
2024/04/18 11:23:58;;;;;;;0.90;0.50;;;9.40;1.00;;;;;;5493850;26;20512;-50
2024/04/18 11:26:29;;;;;;;0.90;0.40;;;9.50;99.90;;;;;;5501522;26;20554;-53
2024/04/18 11:28:59;;;;;;;0.60;0.40;;;10.20;1.00;;;;;;5489930;26;20902;-53
2024/04/18 11:31:27;;;;;;;1.33;0.50;;;10.80;18.70;;;;;;5485608;26;20458;-53
2024/04/18 11:33:57;;;;;;;1.23;0.70;;;11.50;99.90;;;;;;5483197;26;20791;-50
2024/04/18 11:36:26;;;;;;;1.40;0.60;;;12.30;99.90;;;;;;5447806;26;20868;-52
2024/04/18 11:39:01;;;;;;;0.97;0.50;;;12.00;1.00;;;;;;5457230;26;20498;-54
2024/04/18 11:41:31;;;;;;;3.40;0.47;;;12.50;1.00;;;;;;5485355;26;20486;-51
2024/04/18 11:44:00;;;;;;;2.40;0.60;;;12.80;1.00;;;;;;5484702;26;20461;-55
2024/04/18 11:46:31;;;;;;;0.80;0.50;;;13.30;1.00;;;;;;5481901;26;20507;-54
2024/04/18 11:49:00;;;;;;;0.80;0.50;;;13.10;99.90;;;;;;5484405;26;20461;-54
2024/04/18 11:51:29;;;;;;;1.70;0.60;;;13.00;99.90;;;;;;5482295;26;20494;-56
2024/04/18 11:54:00;;;;;;;0.53;0.30;;;12.10;99.90;;;;;;5485874;26;20895;-54
2024/04/18 11:56:29;;;;;;;0.80;0.50;;;11.70;1.00;;;;;;5486323;26;20454;-52
2024/04/18 11:58:59;;;;;;;1.80;0.60;;;11.40;99.90;;;;;;5484933;26;20454;-54
2024/04/18 12:01:28;;;;;;;1.60;0.53;;;10.60;1.00;;;;;;5488531;26;20817;-56
2024/04/18 12:03:56;;;;;;;0.97;0.50;;;10.00;99.90;;;;;;5480094;26;20460;-53
2024/04/18 12:06:26;;;;;;;0.70;0.40;;;9.60;99.90;;;;;;5525037;26;20566;-52
2024/04/18 12:08:55;;;;;;;1.10;0.53;;;9.30;99.90;;;;;;5500068;26;20514;-48
2024/04/18 12:11:26;;;;;;;1.30;0.50;;;9.00;1.00;;;;;;5488624;26;20469;-48
2024/04/18 12:13:55;;;;;;;0.70;0.40;;;8.80;1.00;;;;;;5488838;26;20779;-49
2024/04/18 12:16:24;;;;;;;1.03;0.47;;;8.70;1.00;;;;;;5494351;26;20464;-50
2024/04/18 12:18:55;;;;;;;0.97;0.53;;;8.30;1.00;;;;;;5489220;26;20481;-51
2024/04/18 12:21:27;;;;;;;0.97;0.43;;;8.10;1.00;;;;;;5495828;26;20878;-49
2024/04/18 12:23:56;;;;;;;0.60;0.40;;;8.00;1.00;;;;;;5482336;26;20506;-45
2024/04/18 12:26:28;;;;;;;1.10;0.60;;;8.10;6.60;;;;;;5487068;26;20620;-47
2024/04/18 12:28:57;;;;;;;1.10;0.43;;;8.20;1.00;;;;;;5479317;26;20538;-47
2024/04/18 12:31:26;;;;;;;0.80;0.40;;;8.40;1.00;;;;;;5484421;26;20541;-47
2024/04/18 12:33:55;;;;;;;0.80;0.57;;;8.60;1.00;;;;;;5483116;26;20566;-48
2024/04/18 12:36:24;;;;;;;0.90;0.50;;;8.80;1.00;;;;;;5488811;26;20450;-44
2024/04/18 12:38:53;;;;;;;0.90;0.60;;;9.00;1.00;;;;;;5490628;26;20503;-49
2024/04/18 12:41:22;;;;;;;0.90;0.70;;;9.00;1.00;;;;;;5494681;26;20466;-47
2024/04/18 12:43:53;;;;;;;0.90;0.57;;;8.70;1.00;;;;;;5488161;26;20809;-45
2024/04/18 12:46:22;;;;;;;0.80;0.40;;;8.80;1.00;;;;;;5488808;26;20899;-46
2024/04/18 12:48:51;;;;;;;0.93;0.50;;;8.80;1.00;;;;;;5487931;26;20481;-47
2024/04/18 12:51:20;;;;;;;3.40;0.70;;;9.00;1.00;;;;;;5486844;26;20500;-45
2024/04/18 12:53:49;;;;;;;0.90;0.60;;;9.10;1.00;;;;;;5483538;26;20605;-48
2024/04/18 12:56:18;;;;;;;1.30;0.70;;;9.30;1.00;;;;;;5481897;26;20470;-46
2024/04/18 12:58:47;;;;;;;1.10;0.50;;;9.40;1.00;;;;;;5485631;26;20526;-51
2024/04/18 13:01:18;;;;;;;0.90;0.50;;;9.60;1.00;;;;;;5487588;26;20674;-47
2024/04/18 13:03:47;;;;;;;0.87;0.57;;;9.70;1.00;;;;;;5484883;26;20477;-47
2024/04/18 13:06:17;;;;;;;1.00;0.60;;;10.10;1.00;;;;;;5490134;26;20449;-46
2024/04/18 13:08:46;;;;;;;1.50;0.60;;;10.70;1.00;;;;;;5489668;26;20461;-45
2024/04/18 13:11:15;;;;;;;0.90;0.60;;;10.90;1.00;;;;;;5483470;26;20473;-46